Time;durP1;ratioP1;P1;durP2;ratioP2;P2;SDS_P1;SDS_P2;PMS_P1;PMS_P2;Temp;Humidity;BMP_temperature;BMP_pressure;BME280_temperature;BME280_humidity;BME280_pressure;Samples;Min_cycle;Max_cycle;Signal;HPM_P1;HPM_P2
2021/04/07 00:00:15;;;;;;;4.25;0.65;;;1.70;81.60;;;;;;2073911;28;20036;-82
2021/04/07 00:01:16;;;;;;;4.18;0.80;;;1.70;81.70;;;;;;2073641;28;20033;-82
2021/04/07 00:02:17;;;;;;;5.00;0.70;;;1.60;81.70;;;;;;2073280;28;20049;-83
2021/04/07 00:03:18;;;;;;;1.95;0.50;;;1.60;81.80;;;;;;2073176;28;20030;-82
2021/04/07 00:04:19;;;;;;;5.07;0.80;;;1.60;81.80;;;;;;2064814;28;20031;-82
2021/04/07 00:05:26;;;;;;;3.22;0.60;;;1.60;81.90;;;;;;2078291;28;20508;-82
2021/04/07 00:06:27;;;;;;;2.67;0.80;;;1.60;81.90;;;;;;2074564;28;20018;-82
2021/04/07 00:07:27;;;;;;;5.88;0.80;;;1.60;82.00;;;;;;2081392;28;20029;-82
2021/04/07 00:08:28;;;;;;;3.85;0.68;;;1.50;82.00;;;;;;2072816;28;20468;-82
2021/04/07 00:09:29;;;;;;;4.03;0.60;;;1.50;82.10;;;;;;2081536;28;20041;-82
2021/04/07 00:10:37;;;;;;;3.45;0.52;;;1.50;82.10;;;;;;2081010;28;20384;-82
2021/04/07 00:11:38;;;;;;;4.68;0.80;;;1.50;82.20;;;;;;2082031;28;20021;-82
2021/04/07 00:12:40;;;;;;;4.03;0.50;;;1.50;82.20;;;;;;2081731;28;20045;-82
2021/04/07 00:13:40;;;;;;;3.00;0.60;;;1.50;82.20;;;;;;2066414;28;20555;-82
2021/04/07 00:14:41;;;;;;;6.60;1.00;;;1.50;82.30;;;;;;2066022;28;20026;-83
2021/04/07 00:15:42;;;;;;;2.10;0.55;;;1.50;82.30;;;;;;2058193;28;20382;-82
2021/04/07 00:16:43;;;;;;;4.15;0.55;;;1.50;82.40;;;;;;2066107;28;20019;-83
2021/04/07 00:17:43;;;;;;;3.13;0.70;;;1.50;82.40;;;;;;2077064;28;20040;-83
2021/04/07 00:18:44;;;;;;;2.85;0.88;;;1.50;82.40;;;;;;2080910;28;20558;-82
2021/04/07 00:19:45;;;;;;;3.40;0.65;;;1.50;82.50;;;;;;2072162;28;20034;-82
2021/04/07 00:20:45;;;;;;;2.55;0.40;;;1.50;82.50;;;;;;2073523;28;20120;-82
2021/04/07 00:21:46;;;;;;;5.55;0.68;;;1.50;83.10;;;;;;2080938;28;20029;-83
2021/04/07 00:22:47;;;;;;;2.20;0.63;;;1.40;82.50;;;;;;2057094;28;20027;-83
2021/04/07 00:23:48;;;;;;;2.47;0.70;;;1.40;82.50;;;;;;2077736;28;20087;-83
2021/04/07 00:24:49;;;;;;;2.13;0.60;;;1.40;82.60;;;;;;2081376;28;20021;-83
2021/04/07 00:25:50;;;;;;;2.55;0.47;;;1.40;82.60;;;;;;2079677;28;20033;-82
2021/04/07 00:26:50;;;;;;;2.38;0.65;;;1.40;82.60;;;;;;2072108;28;20050;-83
2021/04/07 00:28:55;;;;;;;3.45;0.65;;;1.40;82.70;;;;;;2073571;28;20022;-83
2021/04/07 00:29:56;;;;;;;2.28;0.50;;;1.40;82.70;;;;;;2073090;28;20032;-83
2021/04/07 00:30:58;;;;;;;4.30;0.60;;;1.40;82.70;;;;;;2064890;28;20455;-82
2021/04/07 00:31:58;;;;;;;2.38;0.50;;;1.40;82.70;;;;;;2065080;28;20412;-83
2021/04/07 00:32:59;;;;;;;1.80;0.40;;;1.40;82.80;;;;;;2065153;28;20038;-82
2021/04/07 00:34:00;;;;;;;3.17;0.50;;;1.40;82.80;;;;;;2073092;28;20038;-83
2021/04/07 00:35:01;;;;;;;3.42;0.60;;;1.30;82.80;;;;;;2072404;28;20030;-83
2021/04/07 00:36:02;;;;;;;1.27;0.43;;;1.30;82.90;;;;;;2059114;28;20489;-83
2021/04/07 00:37:02;;;;;;;3.25;0.65;;;1.30;82.90;;;;;;2064905;28;20038;-83
2021/04/07 00:38:03;;;;;;;3.50;0.85;;;1.30;83.00;;;;;;2073092;28;20518;-83
2021/04/07 00:39:04;;;;;;;3.75;0.70;;;1.30;82.90;;;;;;2068420;28;20034;-83
2021/04/07 00:40:06;;;;;;;2.38;0.57;;;1.30;83.00;;;;;;2081300;28;20026;-83
2021/04/07 00:41:06;;;;;;;4.20;0.60;;;1.30;83.00;;;;;;2094386;28;20029;-83
2021/04/07 00:42:08;;;;;;;3.20;0.55;;;1.30;83.00;;;;;;2072827;28;20512;-83
2021/04/07 00:43:08;;;;;;;2.70;0.50;;;1.30;83.00;;;;;;2065159;28;20026;-83
2021/04/07 00:44:09;;;;;;;2.03;0.57;;;1.30;83.00;;;;;;2072780;28;20013;-83
2021/04/07 00:45:12;;;;;;;3.03;0.40;;;1.20;83.00;;;;;;2070936;28;20041;-83
2021/04/07 00:46:12;;;;;;;2.53;0.68;;;1.30;83.10;;;;;;2066509;28;20456;-83
2021/04/07 00:47:16;;;;;;;4.15;0.63;;;1.20;83.00;;;;;;2080151;28;20033;-83
2021/04/07 00:48:18;;;;;;;2.58;0.57;;;1.20;83.00;;;;;;2072986;28;20045;-83
2021/04/07 00:49:19;;;;;;;2.70;0.50;;;1.20;83.10;;;;;;2088737;28;20433;-83
2021/04/07 00:50:21;;;;;;;3.58;0.50;;;1.20;83.00;;;;;;2080205;28;20049;-83
2021/04/07 00:51:22;;;;;;;4.55;0.80;;;1.20;83.10;;;;;;2072884;28;20038;-82
2021/04/07 00:52:23;;;;;;;3.22;0.50;;;1.20;83.10;;;;;;2072318;28;20029;-83
2021/04/07 00:53:23;;;;;;;3.45;0.52;;;1.20;83.00;;;;;;2055942;28;20039;-83
2021/04/07 00:54:24;;;;;;;3.88;0.57;;;1.20;83.00;;;;;;2073048;28;20026;-82
2021/04/07 00:55:36;;;;;;;2.58;0.60;;;1.20;83.00;;;;;;2072823;28;20038;-83
2021/04/07 00:56:37;;;;;;;2.95;0.50;;;1.20;83.00;;;;;;2075378;28;20030;-83
2021/04/07 00:57:40;;;;;;;2.90;0.60;;;1.30;83.10;;;;;;2080722;28;20020;-83
2021/04/07 00:58:41;;;;;;;1.77;0.38;;;1.30;83.00;;;;;;2080447;28;20101;-83
2021/04/07 00:59:41;;;;;;;4.85;0.52;;;1.30;83.00;;;;;;2080810;28;20030;-83
2021/04/07 01:00:43;;;;;;;2.47;0.70;;;1.30;83.00;;;;;;2072875;28;20396;-83
2021/04/07 01:01:44;;;;;;;4.22;0.90;;;1.30;82.90;;;;;;2068384;28;20026;-82
2021/04/07 01:02:51;;;;;;;3.40;0.50;;;1.30;82.90;;;;;;2082297;28;20021;-82
2021/04/07 01:03:52;;;;;;;2.25;0.60;;;1.30;82.90;;;;;;2081343;28;20121;-83
2021/04/07 01:04:53;;;;;;;5.47;0.75;;;1.40;82.90;;;;;;2082261;28;20087;-83
2021/04/07 01:05:55;;;;;;;2.65;0.55;;;1.40;82.80;;;;;;2078295;28;20078;-83
2021/04/07 01:06:57;;;;;;;2.30;0.40;;;1.40;82.80;;;;;;2078003;28;20037;-83
2021/04/07 01:07:58;;;;;;;3.38;0.52;;;1.40;82.80;;;;;;2079921;28;20075;-83
2021/04/07 01:08:59;;;;;;;2.95;0.65;;;1.40;82.70;;;;;;2074062;28;20413;-83
2021/04/07 01:10:00;;;;;;;4.13;0.40;;;1.40;82.70;;;;;;2064563;28;20026;-83
2021/04/07 01:11:00;;;;;;;3.15;0.73;;;1.40;82.70;;;;;;2072842;28;20399;-83
2021/04/07 01:12:01;;;;;;;3.72;0.47;;;1.40;82.70;;;;;;2077982;28;20127;-83
2021/04/07 01:13:02;;;;;;;3.70;0.65;;;1.40;82.70;;;;;;2079016;28;20041;-83
2021/04/07 01:14:03;;;;;;;3.22;0.70;;;1.40;82.80;;;;;;2064693;28;20600;-83
2021/04/07 01:15:06;;;;;;;4.03;0.57;;;1.50;82.80;;;;;;2057069;28;20059;-83
2021/04/07 01:16:07;;;;;;;4.25;0.82;;;1.50;82.80;;;;;;2080760;28;20021;-83
2021/04/07 01:17:08;;;;;;;2.67;0.60;;;1.50;82.80;;;;;;2081697;28;20483;-83
2021/04/07 01:18:09;;;;;;;2.92;0.43;;;1.50;82.80;;;;;;2086792;28;20103;-83
2021/04/07 01:19:10;;;;;;;1.63;0.40;;;1.50;82.80;;;;;;2089249;28;20032;-83
2021/04/07 01:20:17;;;;;;;3.45;0.70;;;1.50;82.80;;;;;;2089116;28;20603;-83
2021/04/07 01:21:18;;;;;;;3.90;0.70;;;1.50;82.90;;;;;;2081767;28;20577;-83
2021/04/07 01:22:21;;;;;;;5.10;0.95;;;1.50;82.90;;;;;;2072133;28;20026;-83
2021/04/07 01:23:22;;;;;;;3.75;0.70;;;1.50;82.90;;;;;;2073002;28;20049;-82
2021/04/07 01:24:24;;;;;;;2.80;0.60;;;1.50;82.90;;;;;;2077779;28;20032;-84
2021/04/07 01:25:25;;;;;;;2.95;0.70;;;1.50;83.00;;;;;;2073270;28;20151;-83
2021/04/07 01:26:26;;;;;;;4.03;0.70;;;1.50;83.60;;;;;;2083202;28;20026;-83
2021/04/07 01:27:26;;;;;;;2.70;0.55;;;1.50;82.90;;;;;;2077294;28;20033;-84
2021/04/07 01:28:27;;;;;;;3.40;0.70;;;1.50;83.00;;;;;;2080822;28;20084;-83
2021/04/07 01:29:28;;;;;;;4.32;0.70;;;1.50;83.00;;;;;;2080757;28;20486;-83
2021/04/07 01:30:29;;;;;;;2.30;0.60;;;1.50;83.10;;;;;;2071606;28;20178;-83
2021/04/07 01:31:30;;;;;;;5.32;0.70;;;1.50;83.10;;;;;;2070094;28;20255;-83
2021/04/07 01:32:31;;;;;;;1.67;0.40;;;1.50;83.20;;;;;;2080216;28;20017;-83
2021/04/07 01:33:31;;;;;;;2.58;0.70;;;1.50;83.20;;;;;;2064134;28;20448;-82
2021/04/07 01:34:33;;;;;;;4.07;0.80;;;1.50;83.20;;;;;;2064163;28;20034;-83
2021/04/07 01:35:34;;;;;;;3.83;0.60;;;1.50;83.20;;;;;;2072892;28;20040;-83
2021/04/07 01:36:34;;;;;;;3.15;0.80;;;1.50;83.20;;;;;;2075522;28;20490;-83
2021/04/07 01:37:36;;;;;;;1.92;0.55;;;1.50;83.20;;;;;;2080070;28;20105;-83
2021/04/07 01:38:36;;;;;;;4.50;1.10;;;1.60;83.40;;;;;;2080843;28;20029;-82
2021/04/07 01:39:37;;;;;;;3.10;0.57;;;1.60;83.30;;;;;;2066055;28;20091;-83
2021/04/07 01:40:41;;;;;;;3.72;0.80;;;1.60;83.30;;;;;;2064399;28;20053;-82
2021/04/07 01:41:42;;;;;;;3.00;0.70;;;1.60;83.20;;;;;;2080062;28;20029;-83
2021/04/07 01:42:45;;;;;;;3.45;0.70;;;1.60;83.30;;;;;;2067888;28;21061;-83
2021/04/07 01:43:48;;;;;;;2.22;0.52;;;1.60;83.30;;;;;;2064787;28;20591;-83
2021/04/07 01:44:49;;;;;;;2.28;0.60;;;1.60;83.30;;;;;;2080787;28;20496;-82
2021/04/07 01:45:50;;;;;;;4.30;0.68;;;1.60;83.30;;;;;;2079368;28;20037;-82
2021/04/07 01:46:52;;;;;;;4.28;0.70;;;1.60;83.40;;;;;;2072059;28;20038;-83
2021/04/07 01:47:55;;;;;;;3.28;0.50;;;1.60;83.50;;;;;;2088897;28;20029;-83
2021/04/07 01:48:55;;;;;;;4.28;0.70;;;1.60;83.50;;;;;;2086845;28;20379;-83
2021/04/07 01:49:59;;;;;;;2.88;0.70;;;1.60;83.50;;;;;;2071277;28;20058;-83
2021/04/07 01:51:00;;;;;;;3.75;0.50;;;1.60;83.70;;;;;;2073397;28;20503;-82
2021/04/07 01:52:01;;;;;;;2.90;0.50;;;1.60;83.70;;;;;;2072611;28;20034;-83
2021/04/07 01:53:02;;;;;;;2.58;0.82;;;1.60;83.80;;;;;;2072545;28;20042;-83
2021/04/07 01:54:07;;;;;;;4.10;0.70;;;1.60;83.80;;;;;;2064399;28;20037;-83
2021/04/07 01:55:09;;;;;;;3.20;0.50;;;1.60;83.90;;;;;;2073882;28;20033;-83
2021/04/07 01:56:10;;;;;;;2.78;0.50;;;1.60;83.90;;;;;;2083484;28;20021;-83
2021/04/07 01:57:11;;;;;;;3.42;0.50;;;1.60;83.90;;;;;;2064630;28;20587;-83
2021/04/07 01:58:12;;;;;;;4.93;0.60;;;1.60;83.90;;;;;;2056519;28;20031;-83
2021/04/07 01:59:15;;;;;;;2.83;0.70;;;1.60;84.00;;;;;;2072527;28;20053;-83
2021/04/07 02:00:16;;;;;;;2.70;0.60;;;1.60;84.00;;;;;;2087339;28;20036;-83
2021/04/07 02:01:17;;;;;;;2.78;0.55;;;1.60;84.00;;;;;;2062962;28;20034;-82
2021/04/07 02:02:18;;;;;;;1.95;0.57;;;1.70;84.10;;;;;;2065702;28;20429;-83
2021/04/07 02:03:18;;;;;;;3.03;0.65;;;1.70;84.10;;;;;;2074116;28;20026;-83
2021/04/07 02:04:20;;;;;;;2.50;0.60;;;1.70;84.20;;;;;;2066046;28;20557;-83
2021/04/07 02:05:21;;;;;;;3.88;0.88;;;1.70;84.10;;;;;;2085952;28;20033;-83
2021/04/07 02:06:22;;;;;;;3.85;0.88;;;1.70;84.70;;;;;;2074127;28;20416;-83
2021/04/07 02:07:22;;;;;;;2.58;0.60;;;1.70;84.10;;;;;;2069481;28;20029;-83
2021/04/07 02:08:23;;;;;;;4.10;0.80;;;1.70;84.20;;;;;;2066000;28;20077;-83
2021/04/07 02:09:25;;;;;;;3.92;0.90;;;1.70;84.20;;;;;;2065967;28;20496;-83
2021/04/07 02:10:26;;;;;;;2.13;0.88;;;1.70;84.30;;;;;;2076613;28;20029;-83
2021/04/07 02:11:27;;;;;;;3.53;1.00;;;1.70;84.30;;;;;;2075092;28;20036;-83
2021/04/07 02:12:27;;;;;;;2.60;0.73;;;1.70;84.30;;;;;;2073856;28;20022;-83
2021/04/07 02:13:28;;;;;;;3.53;1.00;;;1.70;84.30;;;;;;2065987;28;20072;-83
2021/04/07 02:14:28;;;;;;;2.83;0.73;;;1.70;84.30;;;;;;2049746;28;20367;-83
2021/04/07 02:15:29;;;;;;;4.20;1.13;;;1.70;84.40;;;;;;2064887;28;20500;-83
2021/04/07 02:16:30;;;;;;;2.90;0.88;;;1.70;84.40;;;;;;2080022;28;20046;-83
2021/04/07 02:17:30;;;;;;;4.50;1.25;;;1.70;84.40;;;;;;2082235;28;20079;-83
2021/04/07 02:18:31;;;;;;;3.60;1.00;;;1.70;84.50;;;;;;2065447;28;20042;-82
2021/04/07 02:19:35;;;;;;;3.80;0.80;;;1.70;84.60;;;;;;2072688;28;20072;-83
2021/04/07 02:20:36;;;;;;;2.38;0.90;;;1.70;84.60;;;;;;2082184;28;20025;-82
2021/04/07 02:21:37;;;;;;;2.75;0.90;;;1.70;84.70;;;;;;2090541;28;20069;-83
2021/04/07 02:22:38;;;;;;;4.78;1.27;;;1.70;84.60;;;;;;2089643;28;20024;-82
2021/04/07 02:23:39;;;;;;;3.10;0.93;;;1.70;85.30;;;;;;2080794;28;20079;-82
2021/04/07 02:24:43;;;;;;;2.88;1.00;;;1.70;84.80;;;;;;2090242;28;20025;-82
2021/04/07 02:25:44;;;;;;;4.03;1.00;;;1.70;84.70;;;;;;2082800;28;20037;-82
2021/04/07 02:26:44;;;;;;;2.17;0.80;;;1.70;84.70;;;;;;2068481;28;20590;-83
2021/04/07 02:27:45;;;;;;;3.67;0.90;;;1.70;84.80;;;;;;2073822;28;20240;-83
2021/04/07 02:28:46;;;;;;;3.50;0.73;;;1.70;84.80;;;;;;2082102;28;20022;-82
2021/04/07 02:29:55;;;;;;;2.00;0.70;;;1.70;84.80;;;;;;2082117;28;20037;-82
2021/04/07 02:30:56;;;;;;;2.88;0.90;;;1.70;84.80;;;;;;2082210;28;20108;-82
2021/04/07 02:31:56;;;;;;;4.65;1.00;;;1.70;84.80;;;;;;2088765;28;20380;-82
2021/04/07 02:32:57;;;;;;;3.72;0.90;;;1.80;84.80;;;;;;2081910;28;20045;-81
2021/04/07 02:33:57;;;;;;;2.22;0.75;;;1.70;84.80;;;;;;2081282;28;20026;-82
2021/04/07 02:34:59;;;;;;;2.13;0.80;;;1.80;84.80;;;;;;2081759;28;20093;-82
2021/04/07 02:35:59;;;;;;;4.10;0.95;;;1.80;84.90;;;;;;2090080;28;20021;-82
2021/04/07 02:37:00;;;;;;;3.17;0.70;;;1.80;84.80;;;;;;2081586;28;20479;-81
2021/04/07 02:38:01;;;;;;;3.25;0.80;;;1.80;85.00;;;;;;2081914;28;20033;-81
2021/04/07 02:39:03;;;;;;;2.72;0.70;;;1.80;84.90;;;;;;2081705;28;20049;-81
2021/04/07 02:40:04;;;;;;;2.13;0.70;;;1.80;84.90;;;;;;2073473;28;20184;-82
2021/04/07 02:41:05;;;;;;;2.55;0.63;;;1.80;84.90;;;;;;2085848;28;20491;-82
2021/04/07 02:42:07;;;;;;;4.13;1.05;;;1.80;84.90;;;;;;2090241;28;20030;-82
2021/04/07 02:43:08;;;;;;;2.35;0.82;;;1.80;84.90;;;;;;2081999;28;20017;-82
2021/04/07 02:44:09;;;;;;;3.95;1.05;;;1.90;85.10;;;;;;2076076;28;20045;-82
2021/04/07 02:45:10;;;;;;;4.25;1.02;;;1.90;85.00;;;;;;2065766;28;20057;-82
2021/04/07 02:46:11;;;;;;;2.10;0.70;;;1.90;85.00;;;;;;2058009;28;20113;-82
2021/04/07 02:47:11;;;;;;;2.67;0.70;;;1.90;85.00;;;;;;2071567;28;20419;-82
2021/04/07 02:48:12;;;;;;;2.50;0.80;;;1.90;85.00;;;;;;2073688;28;20135;-82
2021/04/07 02:49:13;;;;;;;1.90;0.90;;;1.80;84.90;;;;;;2065022;28;20038;-82
2021/04/07 02:50:13;;;;;;;2.17;0.82;;;1.80;85.00;;;;;;2069045;28;20583;-82
2021/04/07 02:51:14;;;;;;;3.15;1.17;;;1.80;85.00;;;;;;2073837;28;20026;-82
2021/04/07 02:52:15;;;;;;;1.88;0.90;;;1.80;85.00;;;;;;2071338;28;20113;-82
2021/04/07 02:53:15;;;;;;;3.95;0.88;;;1.80;85.00;;;;;;2080804;28;20196;-82
2021/04/07 02:54:16;;;;;;;2.80;1.00;;;1.80;85.00;;;;;;2089955;28;20025;-82
2021/04/07 02:55:17;;;;;;;2.95;0.80;;;1.80;85.10;;;;;;2085478;28;20029;-82
2021/04/07 02:56:17;;;;;;;2.97;0.93;;;1.90;85.20;;;;;;2089160;28;20499;-82
2021/04/07 02:57:18;;;;;;;3.75;1.00;;;1.80;85.10;;;;;;2075290;28;20040;-82
2021/04/07 02:58:18;;;;;;;1.88;0.75;;;1.80;85.10;;;;;;2057545;28;20023;-82
2021/04/07 02:59:19;;;;;;;3.33;0.88;;;1.90;85.20;;;;;;2057409;28;20042;-81
2021/04/07 03:00:21;;;;;;;1.92;0.68;;;1.80;85.10;;;;;;2051920;28;20035;-82
2021/04/07 03:01:22;;;;;;;1.85;0.75;;;1.90;85.20;;;;;;2065042;28;20030;-82
2021/04/07 03:02:22;;;;;;;1.20;0.60;;;1.80;85.20;;;;;;2065499;28;20065;-82
2021/04/07 03:03:23;;;;;;;1.73;0.65;;;1.80;85.20;;;;;;2073747;28;20079;-82
2021/04/07 03:04:23;;;;;;;2.60;0.82;;;1.80;85.30;;;;;;2057408;28;20505;-82
2021/04/07 03:05:25;;;;;;;1.67;0.60;;;1.80;85.30;;;;;;2065862;28;20027;-82
2021/04/07 03:06:25;;;;;;;1.90;0.60;;;1.80;85.40;;;;;;2073226;28;20026;-82
2021/04/07 03:07:26;;;;;;;3.15;0.60;;;1.80;85.40;;;;;;2074179;28;20053;-81
2021/04/07 03:08:27;;;;;;;3.15;0.60;;;1.80;85.40;;;;;;2084032;28;20025;-82
2021/04/07 03:09:28;;;;;;;2.60;0.65;;;1.80;85.40;;;;;;2075617;28;20041;-82
2021/04/07 03:10:29;;;;;;;2.05;0.70;;;1.80;85.50;;;;;;2073818;28;20484;-82
2021/04/07 03:11:30;;;;;;;1.45;0.60;;;1.80;85.50;;;;;;2085556;28;20025;-82
2021/04/07 03:12:31;;;;;;;1.70;0.57;;;1.80;85.50;;;;;;2073780;28;20026;-82
2021/04/07 03:13:32;;;;;;;2.45;0.60;;;1.80;85.60;;;;;;2064816;28;20035;-82
2021/04/07 03:14:33;;;;;;;1.45;0.40;;;1.80;85.60;;;;;;2073172;28;20507;-82
2021/04/07 03:15:33;;;;;;;2.08;0.50;;;1.80;85.60;;;;;;2065410;28;20180;-82
2021/04/07 03:16:34;;;;;;;2.67;0.60;;;1.80;85.60;;;;;;2073510;28;20022;-82
2021/04/07 03:17:39;;;;;;;1.75;0.65;;;1.80;85.70;;;;;;2081811;28;20053;-81
2021/04/07 03:18:39;;;;;;;1.67;0.40;;;1.80;85.70;;;;;;2065959;28;20022;-82
2021/04/07 03:19:40;;;;;;;1.58;0.70;;;1.80;85.70;;;;;;2074042;28;20030;-82
2021/04/07 03:20:41;;;;;;;1.10;0.40;;;1.80;85.70;;;;;;2065556;28;20022;-82
2021/04/07 03:21:42;;;;;;;1.83;0.50;;;1.80;85.80;;;;;;2072585;28;20492;-82
2021/04/07 03:22:42;;;;;;;1.30;0.43;;;1.80;85.80;;;;;;2090016;28;20021;-83
2021/04/07 03:23:43;;;;;;;3.08;0.60;;;1.80;85.80;;;;;;2084774;28;20045;-82
2021/04/07 03:24:43;;;;;;;1.95;0.65;;;1.80;85.80;;;;;;2068204;28;20400;-82
2021/04/07 03:25:44;;;;;;;1.27;0.50;;;1.80;86.40;;;;;;2065458;28;20061;-82
2021/04/07 03:26:45;;;;;;;1.67;0.55;;;1.80;86.40;;;;;;2068399;28;20026;-83
2021/04/07 03:27:45;;;;;;;1.45;0.52;;;1.80;85.80;;;;;;2071548;28;20084;-82
2021/04/07 03:28:46;;;;;;;1.65;0.40;;;1.80;85.90;;;;;;2073267;28;20084;-83
2021/04/07 03:29:47;;;;;;;1.35;0.50;;;1.80;85.90;;;;;;2081779;28;20491;-83
2021/04/07 03:30:50;;;;;;;1.67;0.60;;;1.80;85.90;;;;;;2065364;28;20031;-83
2021/04/07 03:31:52;;;;;;;2.08;0.55;;;1.80;85.90;;;;;;2074245;28;20022;-82
2021/04/07 03:32:53;;;;;;;3.60;0.75;;;1.80;85.90;;;;;;2072387;28;20034;-82
2021/04/07 03:33:54;;;;;;;3.88;0.70;;;1.80;85.90;;;;;;2074112;28;20121;-82
2021/04/07 03:34:55;;;;;;;2.13;0.63;;;1.80;85.90;;;;;;2083419;28;20033;-83
2021/04/07 03:35:57;;;;;;;1.42;0.60;;;1.80;86.00;;;;;;2066905;28;20036;-83
2021/04/07 03:36:58;;;;;;;1.48;0.60;;;1.80;86.00;;;;;;2065717;28;20026;-82
2021/04/07 03:37:58;;;;;;;2.63;0.65;;;1.80;86.00;;;;;;2067412;28;20022;-82
2021/04/07 03:38:59;;;;;;;1.83;0.60;;;1.80;86.10;;;;;;2064407;28;20034;-82
2021/04/07 03:39:59;;;;;;;2.63;0.60;;;1.80;86.00;;;;;;2073276;28;20022;-82
2021/04/07 03:41:00;;;;;;;2.15;0.60;;;1.80;86.10;;;;;;2089553;28;20037;-82
2021/04/07 03:42:01;;;;;;;2.92;0.80;;;1.90;86.10;;;;;;2082006;28;20420;-82
2021/04/07 03:43:10;;;;;;;2.42;0.80;;;1.80;86.10;;;;;;2082121;28;20037;-82
2021/04/07 03:44:10;;;;;;;1.85;0.60;;;1.80;86.10;;;;;;2081533;28;20568;-82
2021/04/07 03:45:12;;;;;;;3.13;0.60;;;1.80;86.10;;;;;;2068798;28;20069;-82
2021/04/07 03:46:15;;;;;;;1.83;0.50;;;1.80;86.10;;;;;;2073103;28;20062;-82
2021/04/07 03:47:16;;;;;;;2.05;0.60;;;1.80;86.10;;;;;;2075890;28;20042;-82
2021/04/07 03:48:19;;;;;;;1.00;0.50;;;1.90;86.20;;;;;;2066834;28;20054;-82
2021/04/07 03:49:20;;;;;;;1.42;0.55;;;1.80;86.10;;;;;;2081023;28;20022;-82
2021/04/07 03:50:20;;;;;;;2.03;0.60;;;1.80;86.20;;;;;;2081444;28;20076;-82
2021/04/07 03:51:21;;;;;;;0.85;0.50;;;1.80;86.20;;;;;;2072942;28;20029;-82
2021/04/07 03:52:22;;;;;;;1.98;0.73;;;1.90;86.30;;;;;;2064975;28;20058;-82
2021/04/07 03:53:23;;;;;;;2.08;0.50;;;1.80;86.20;;;;;;2072418;28;20026;-82
2021/04/07 03:54:25;;;;;;;1.25;0.50;;;1.80;86.30;;;;;;2082268;28;20025;-82
2021/04/07 03:55:26;;;;;;;2.08;0.60;;;1.80;86.30;;;;;;2065129;28;20065;-82
2021/04/07 03:56:28;;;;;;;5.15;0.77;;;1.80;86.30;;;;;;2065213;28;20023;-82
2021/04/07 03:57:28;;;;;;;3.08;0.68;;;1.80;86.30;;;;;;2063569;28;20440;-81
2021/04/07 03:58:29;;;;;;;1.40;0.50;;;1.90;86.40;;;;;;2073004;28;20048;-82
2021/04/07 03:59:29;;;;;;;2.75;0.77;;;1.80;86.30;;;;;;2073127;28;20060;-82
2021/04/07 04:00:31;;;;;;;1.85;0.57;;;1.90;86.40;;;;;;2081504;28;20144;-82
2021/04/07 04:01:32;;;;;;;1.17;0.60;;;1.80;86.40;;;;;;2090068;28;20024;-82
2021/04/07 04:02:33;;;;;;;1.55;0.60;;;1.80;86.40;;;;;;2071407;28;20029;-81
2021/04/07 04:03:33;;;;;;;1.20;0.50;;;1.80;86.40;;;;;;2065819;28;20529;-82
2021/04/07 04:04:34;;;;;;;1.88;0.70;;;1.80;86.40;;;;;;2073748;28;20094;-81
2021/04/07 04:05:35;;;;;;;1.60;0.70;;;1.80;86.40;;;;;;2080258;28;20056;-82
2021/04/07 04:06:38;;;;;;;2.30;0.60;;;1.80;86.40;;;;;;2091627;28;20028;-81
2021/04/07 04:07:39;;;;;;;3.28;0.50;;;1.80;86.40;;;;;;2082531;28;20040;-81
2021/04/07 04:08:40;;;;;;;2.35;0.70;;;1.80;86.40;;;;;;2073787;28;20033;-82
2021/04/07 04:09:40;;;;;;;2.00;0.50;;;1.80;86.50;;;;;;2073935;28;20057;-81
2021/04/07 04:10:41;;;;;;;1.52;0.63;;;1.80;86.50;;;;;;2073192;28;20034;-82
2021/04/07 04:11:42;;;;;;;1.90;0.60;;;1.80;86.50;;;;;;2078921;28;20036;-81
2021/04/07 04:12:42;;;;;;;2.63;0.85;;;1.80;86.60;;;;;;2082144;28;20037;-81
2021/04/07 04:13:43;;;;;;;1.38;0.70;;;1.80;86.60;;;;;;2067347;28;20038;-82
2021/04/07 04:14:44;;;;;;;2.22;0.70;;;1.80;86.60;;;;;;2065919;28;20031;-81
2021/04/07 04:15:45;;;;;;;3.03;0.50;;;1.80;86.60;;;;;;2072760;28;20498;-81
2021/04/07 04:16:46;;;;;;;1.70;0.50;;;1.80;86.60;;;;;;2080924;28;20029;-81
2021/04/07 04:17:46;;;;;;;1.48;0.60;;;1.80;86.60;;;;;;2074818;28;20038;-82
2021/04/07 04:18:49;;;;;;;1.35;0.47;;;1.70;87.20;;;;;;2087788;28;20072;-81
2021/04/07 04:19:50;;;;;;;3.38;1.00;;;1.80;86.60;;;;;;2081123;28;20033;-81
2021/04/07 04:20:51;;;;;;;2.03;0.52;;;1.70;86.60;;;;;;2071744;28;20037;-81
2021/04/07 04:21:53;;;;;;;3.10;0.57;;;1.80;86.70;;;;;;2080777;28;20036;-81
2021/04/07 04:22:53;;;;;;;2.47;0.55;;;1.80;86.80;;;;;;2080407;28;20049;-81
2021/04/07 04:23:54;;;;;;;1.75;0.50;;;1.80;86.70;;;;;;2089658;28;20514;-81
2021/04/07 04:24:55;;;;;;;3.20;0.50;;;1.70;86.70;;;;;;2076842;28;20025;-81
2021/04/07 04:25:55;;;;;;;2.40;0.55;;;1.70;86.70;;;;;;2064779;28;20611;-81
2021/04/07 04:26:56;;;;;;;1.15;0.40;;;1.80;86.70;;;;;;2067301;28;20030;-81
2021/04/07 04:27:57;;;;;;;2.70;0.60;;;1.70;86.70;;;;;;2072490;28;20084;-81
2021/04/07 04:28:57;;;;;;;2.10;0.40;;;1.80;86.80;;;;;;2072333;28;20026;-81
2021/04/07 04:29:58;;;;;;;1.98;0.60;;;1.80;86.80;;;;;;2072943;28;20080;-80
2021/04/07 04:30:59;;;;;;;3.40;0.60;;;1.80;86.80;;;;;;2080890;28;20036;-81
2021/04/07 04:31:59;;;;;;;2.92;0.60;;;1.70;86.90;;;;;;2080238;28;20033;-81
2021/04/07 04:33:00;;;;;;;2.15;0.65;;;1.70;86.80;;;;;;2073297;28;20034;-81
2021/04/07 04:34:01;;;;;;;2.33;0.50;;;1.70;86.80;;;;;;2073370;28;20032;-82
2021/04/07 04:35:02;;;;;;;2.60;0.70;;;1.70;86.90;;;;;;2068523;28;20493;-81
2021/04/07 04:36:03;;;;;;;3.40;0.50;;;1.70;86.90;;;;;;2065507;28;20022;-80
2021/04/07 04:37:03;;;;;;;3.80;0.50;;;1.70;86.90;;;;;;2073566;28;20029;-81
2021/04/07 04:38:04;;;;;;;2.83;0.60;;;1.70;87.50;;;;;;2082535;28;20399;-80
2021/04/07 04:39:05;;;;;;;1.73;0.60;;;1.70;87.00;;;;;;2087995;28;20037;-81
2021/04/07 04:40:07;;;;;;;2.13;0.80;;;1.70;87.00;;;;;;2071156;28;20026;-81
2021/04/07 04:41:08;;;;;;;1.90;0.60;;;1.70;87.00;;;;;;2071902;28;20030;-81
2021/04/07 04:42:08;;;;;;;2.30;0.60;;;1.70;87.00;;;;;;2074736;28;20503;-81
2021/04/07 04:43:09;;;;;;;3.00;0.98;;;1.70;87.10;;;;;;2073083;28;20022;-81
2021/04/07 04:44:10;;;;;;;3.00;0.60;;;1.70;87.20;;;;;;2072980;28;20037;-81
2021/04/07 04:45:11;;;;;;;2.00;0.50;;;1.60;87.10;;;;;;2076920;28;20503;-81
2021/04/07 04:46:11;;;;;;;2.20;0.60;;;1.70;87.20;;;;;;2079669;28;20029;-81
2021/04/07 04:47:12;;;;;;;2.78;0.70;;;1.70;87.20;;;;;;2088397;28;20580;-81
2021/04/07 04:48:13;;;;;;;2.72;0.63;;;1.70;87.20;;;;;;2086114;28;20029;-81
2021/04/07 04:49:13;;;;;;;2.05;0.68;;;1.70;87.20;;;;;;2078414;28;20052;-81
2021/04/07 04:50:14;;;;;;;0.80;0.30;;;1.60;87.20;;;;;;2064693;28;20480;-81
2021/04/07 04:51:15;;;;;;;2.05;0.50;;;1.70;87.30;;;;;;2064526;28;20057;-81
2021/04/07 04:52:16;;;;;;;1.65;0.50;;;1.70;87.30;;;;;;2079765;28;20021;-81
2021/04/07 04:53:16;;;;;;;1.77;0.50;;;1.70;87.30;;;;;;2064571;28;20042;-82
2021/04/07 04:54:17;;;;;;;2.67;0.60;;;1.70;87.30;;;;;;2071382;28;20069;-81
2021/04/07 04:55:18;;;;;;;1.30;0.50;;;1.70;87.40;;;;;;2064766;28;20034;-81
2021/04/07 04:56:18;;;;;;;1.13;0.50;;;1.70;87.30;;;;;;2072688;28;20079;-81
2021/04/07 04:57:19;;;;;;;2.92;0.50;;;1.70;87.30;;;;;;2080824;28;20083;-81
2021/04/07 04:58:20;;;;;;;2.30;0.60;;;1.70;87.40;;;;;;2072711;28;20123;-81
2021/04/07 04:59:20;;;;;;;2.33;0.68;;;1.70;87.40;;;;;;2071900;28;20025;-81
2021/04/07 05:00:21;;;;;;;3.17;0.75;;;1.60;87.40;;;;;;2068935;28;20550;-81
2021/04/07 05:01:22;;;;;;;2.05;0.60;;;1.70;87.40;;;;;;2064918;28;20034;-81
2021/04/07 05:02:22;;;;;;;2.67;0.40;;;1.60;88.00;;;;;;2073811;28;20522;-81
2021/04/07 05:03:23;;;;;;;3.40;0.80;;;1.60;87.40;;;;;;2072538;28;20026;-82
2021/04/07 05:04:24;;;;;;;1.58;0.55;;;1.60;87.40;;;;;;2063628;28;20512;-84
2021/04/07 05:05:24;;;;;;;2.30;0.63;;;1.70;87.60;;;;;;2064902;28;20054;-81
2021/04/07 05:06:25;;;;;;;3.08;0.82;;;1.60;88.20;;;;;;2072334;28;20136;-81
2021/04/07 05:07:26;;;;;;;1.67;0.45;;;1.60;87.50;;;;;;2076718;28;20025;-81
2021/04/07 05:08:26;;;;;;;0.63;0.40;;;1.70;87.60;;;;;;2073741;28;20044;-82
2021/04/07 05:09:27;;;;;;;2.55;0.70;;;1.60;87.60;;;;;;2072622;28;20125;-81
2021/04/07 05:10:27;;;;;;;3.47;0.63;;;1.70;87.60;;;;;;2071679;28;20030;-82
2021/04/07 05:11:28;;;;;;;1.65;0.73;;;1.70;87.60;;;;;;2070232;28;20480;-82
2021/04/07 05:12:29;;;;;;;2.95;0.50;;;1.70;87.60;;;;;;2072555;28;20031;-82
2021/04/07 05:13:29;;;;;;;4.03;0.60;;;1.70;87.70;;;;;;2082978;28;20037;-82
2021/04/07 05:14:30;;;;;;;1.67;0.47;;;1.70;87.70;;;;;;2062118;28;20041;-82
2021/04/07 05:15:30;;;;;;;1.92;0.60;;;1.70;87.70;;;;;;2066215;28;20485;-82
2021/04/07 05:16:32;;;;;;;2.33;0.60;;;1.70;87.70;;;;;;2070025;28;20034;-82
2021/04/07 05:17:36;;;;;;;2.05;0.60;;;1.70;87.70;;;;;;2064897;28;20031;-82
2021/04/07 05:18:36;;;;;;;1.33;0.40;;;1.70;87.70;;;;;;2073032;28;20392;-82
2021/04/07 05:19:37;;;;;;;2.00;0.50;;;1.70;87.70;;;;;;2072334;28;20034;-82
2021/04/07 05:20:38;;;;;;;1.83;0.50;;;1.70;87.80;;;;;;2067340;28;20026;-81
2021/04/07 05:21:39;;;;;;;1.63;0.52;;;1.70;87.70;;;;;;2068260;28;20535;-81
2021/04/07 05:22:39;;;;;;;2.63;0.70;;;1.70;87.80;;;;;;2083012;28;20029;-81
2021/04/07 05:23:40;;;;;;;3.10;0.70;;;1.70;87.80;;;;;;2076985;28;20100;-81